createdAt,value
2023-01-17T00:01:35.054Z,7.40
2023-01-17T00:04:53.457Z,7.33
2023-01-17T00:07:54.916Z,7.34
2023-01-17T00:10:25.612Z,7.32
2023-01-17T00:13:26.894Z,7.14
2023-01-17T00:16:30.498Z,7.06
2023-01-17T00:19:58.137Z,7.22
2023-01-17T00:23:04.745Z,7.15
2023-01-17T00:26:19.725Z,7.19
2023-01-17T00:29:21.481Z,7.33
2023-01-17T00:32:26.253Z,7.26
2023-01-17T00:35:45.604Z,7.15
2023-01-17T00:38:35.541Z,7.24
2023-01-17T00:41:28.134Z,7.32
2023-01-17T00:44:37.231Z,7.30
2023-01-17T00:48:09.888Z,7.18
2023-01-17T00:51:41.320Z,7.11
2023-01-17T00:54:53.602Z,7.25
2023-01-17T00:58:52.584Z,7.34
2023-01-17T01:02:33.888Z,7.29
2023-01-17T01:06:44.745Z,7.49
2023-01-17T01:09:46.510Z,7.48
2023-01-17T01:12:41.245Z,7.28
2023-01-17T01:15:33.763Z,7.27
2023-01-17T01:18:29.771Z,7.36
2023-01-17T01:21:56.319Z,7.37
2023-01-17T01:25:08.721Z,7.37
2023-01-17T01:28:02.085Z,7.56
2023-01-17T01:30:55.253Z,7.70
2023-01-17T01:33:26.279Z,7.91
2023-01-17T01:36:00.297Z,7.79
2023-01-17T01:38:36.417Z,7.72
2023-01-17T01:41:18.760Z,7.70
2023-01-17T01:43:58.222Z,7.71
2023-01-17T01:46:40.040Z,7.60
2023-01-17T01:49:19.727Z,7.51
2023-01-17T01:52:22.617Z,7.64
2023-01-17T01:55:08.221Z,7.64
2023-01-17T01:58:12.513Z,7.58
2023-01-17T02:00:50.025Z,7.64
2023-01-17T02:03:49.173Z,7.53
2023-01-17T02:07:38.582Z,7.72
2023-01-17T02:10:31.638Z,7.90
2023-01-17T02:13:12.609Z,7.77
2023-01-17T02:16:09.324Z,7.72
2023-01-17T02:19:12.261Z,7.96
2023-01-17T02:22:19.111Z,7.97
2023-01-17T02:25:13.768Z,7.79
2023-01-17T02:28:08.827Z,7.71
2023-01-17T02:30:52.305Z,7.79
2023-01-17T02:33:45.735Z,7.62
2023-01-17T02:36:51.260Z,7.51
2023-01-17T02:39:51.547Z,7.60
2023-01-17T02:43:00.826Z,7.61
2023-01-17T02:45:46.229Z,7.76
2023-01-17T02:48:46.969Z,7.85
2023-01-17T02:52:18.899Z,7.98
2023-01-17T02:55:04.230Z,8.07
2023-01-17T02:58:23.035Z,8.28
2023-01-17T03:01:57.479Z,8.35
2023-01-17T03:04:51.640Z,8.47
2023-01-17T03:07:48.344Z,8.54
2023-01-17T03:10:22.951Z,8.54
2023-01-17T03:13:12.275Z,8.66
2023-01-17T03:15:51.077Z,8.48
2023-01-17T03:18:33.196Z,8.37
2023-01-17T03:21:18.573Z,8.41
2023-01-17T03:23:58.317Z,8.33
2023-01-17T03:26:31.832Z,8.17
2023-01-17T03:29:18.016Z,8.28
2023-01-17T03:31:58.890Z,8.15
2023-01-17T03:34:43.541Z,7.93
2023-01-17T03:37:36.185Z,7.93
2023-01-17T03:40:15.521Z,7.94
2023-01-17T03:43:25.998Z,7.74
2023-01-17T03:46:41.167Z,7.83
2023-01-17T03:49:48.346Z,7.78
2023-01-17T03:52:23.482Z,7.84
2023-01-17T03:55:08.355Z,7.88
2023-01-17T03:58:17.203Z,7.85
2023-01-17T04:01:16.380Z,8.06
2023-01-17T04:03:50.860Z,8.18
2023-01-17T04:06:31.049Z,8.07
2023-01-17T04:09:34.685Z,8.09
2023-01-17T04:12:32.209Z,7.95
2023-01-17T04:15:18.404Z,8.16
2023-01-17T04:18:05.634Z,8.28
2023-01-17T04:21:07.912Z,8.32
2023-01-17T04:24:28.700Z,8.44
2023-01-17T04:27:31.839Z,8.45
2023-01-17T04:30:52.290Z,8.61
2023-01-17T04:33:46.371Z,8.58
2023-01-17T04:36:47.429Z,8.62
2023-01-17T04:39:41.501Z,8.68
2023-01-17T04:43:16.025Z,8.70
2023-01-17T04:46:29.013Z,8.72
2023-01-17T04:49:09.202Z,8.85
2023-01-17T04:52:05.433Z,8.85
2023-01-17T04:54:49.904Z,8.86
2023-01-17T04:57:56.876Z,8.80
2023-01-17T05:01:10.391Z,8.74
2023-01-17T05:04:22.279Z,8.79
2023-01-17T05:06:55.795Z,8.83
2023-01-17T05:09:48.137Z,8.82
2023-01-17T05:12:42.319Z,8.71
2023-01-17T05:15:28.899Z,8.83
2023-01-17T05:18:30.235Z,8.77
2023-01-17T05:21:21.323Z,8.60
2023-01-17T05:24:14.748Z,8.63
2023-01-17T05:27:13.524Z,8.69
2023-01-17T05:29:44.613Z,8.77
2023-01-17T05:32:37.740Z,8.82
2023-01-17T05:35:35.106Z,8.76
2023-01-17T05:38:23.777Z,8.74
2023-01-17T05:41:24.499Z,8.72
2023-01-17T05:43:56.443Z,8.64
2023-01-17T05:46:33.177Z,8.55
2023-01-17T05:49:06.804Z,8.41
2023-01-17T05:51:48.537Z,8.22
2023-01-17T05:54:28.367Z,8.17
2023-01-17T05:57:04.956Z,8.08
2023-01-17T05:59:54.188Z,7.96
2023-01-17T06:02:30.999Z,8.03
2023-01-17T06:05:26.381Z,8.22
2023-01-17T06:08:21.787Z,8.28
2023-01-17T06:10:58.156Z,8.34
2023-01-17T06:13:48.313Z,8.48
2023-01-17T06:16:27.013Z,8.57
2023-01-17T06:19:22.884Z,8.64
2023-01-17T06:21:56.326Z,8.66
2023-01-17T06:24:42.987Z,8.71
2023-01-17T06:27:22.422Z,8.80
2023-01-17T06:30:10.169Z,8.86
2023-01-17T06:32:44.011Z,8.91
2023-01-17T06:35:52.088Z,8.96
2023-01-17T06:38:36.620Z,8.93
2023-01-17T06:41:27.266Z,8.99
2023-01-17T06:44:16.282Z,9.05
2023-01-17T06:46:45.234Z,8.99
2023-01-17T06:49:19.157Z,8.84
2023-01-17T06:52:07.838Z,8.95
2023-01-17T06:54:41.797Z,8.87
2023-01-17T06:57:15.470Z,8.85
2023-01-17T06:59:47.576Z,8.87
2023-01-17T07:02:29.234Z,8.86
2023-01-17T07:05:00.184Z,8.90
2023-01-17T07:07:55.994Z,8.93
2023-01-17T07:11:08.878Z,9.06
2023-01-17T07:13:45.755Z,9.00
2023-01-17T07:16:21.335Z,9.04
2023-01-17T07:19:21.934Z,9.05
2023-01-17T07:22:37.959Z,9.15
2023-01-17T07:25:49.008Z,9.28
2023-01-17T07:28:43.226Z,9.45
2023-01-17T07:31:18.025Z,9.48
2023-01-17T07:34:06.979Z,9.53
2023-01-17T07:36:47.065Z,9.55
2023-01-17T07:39:28.415Z,9.49
2023-01-17T07:42:09.698Z,9.35
2023-01-17T07:44:48.516Z,9.33
2023-01-17T07:47:24.672Z,9.22
2023-01-17T07:50:04.028Z,9.32
2023-01-17T07:52:35.353Z,9.21
2023-01-17T07:55:23.147Z,9.18
2023-01-17T07:58:12.147Z,9.07
2023-01-17T08:01:29.808Z,9.08
2023-01-17T08:04:23.340Z,9.25
2023-01-17T08:07:45.752Z,9.29
2023-01-17T08:10:25.892Z,9.57
2023-01-17T08:13:06.202Z,9.68
2023-01-17T08:16:03.413Z,9.74
2023-01-17T08:19:00.091Z,9.78
2023-01-17T08:22:26.905Z,9.77
2023-01-17T08:25:55.938Z,9.88
2023-01-17T08:28:40.705Z,10.00
2023-01-17T08:31:17.619Z,10.10
2023-01-17T08:34:17.147Z,10.10
2023-01-17T08:37:58.780Z,9.23
2023-01-17T08:40:43.185Z,8.18
2023-01-17T08:44:27.810Z,8.05
2023-01-17T08:47:51.152Z,9.09
2023-01-17T08:51:26.613Z,9.62
2023-01-17T08:54:33.959Z,9.89
2023-01-17T08:57:58.300Z,10.15
2023-01-17T09:02:02.978Z,10.29
2023-01-17T09:04:35.175Z,10.25
2023-01-17T09:08:21.605Z,10.28
2023-01-17T09:12:03.008Z,10.35
2023-01-17T09:14:59.532Z,10.42
2023-01-17T09:18:08.152Z,10.49
2023-01-17T09:21:14.044Z,10.49
2023-01-17T09:23:54.369Z,10.50
2023-01-17T09:27:25.208Z,10.54
2023-01-17T09:29:56.657Z,10.57
2023-01-17T09:32:32.315Z,10.67
2023-01-17T09:35:13.936Z,10.77
2023-01-17T09:37:48.311Z,10.86
2023-01-17T09:40:46.693Z,10.94
2023-01-17T09:43:46.737Z,10.94
2023-01-17T09:46:24.043Z,11.02
2023-01-17T09:49:47.430Z,11.09
2023-01-17T09:52:44.260Z,11.15
2023-01-17T09:56:20.377Z,11.15
2023-01-17T10:00:03.594Z,10.61
2023-01-17T10:03:21.094Z,9.19
2023-01-17T10:07:03.583Z,9.22
2023-01-17T10:09:57.657Z,9.59
2023-01-17T10:13:53.874Z,9.69
2023-01-17T10:16:44.340Z,9.73
2023-01-17T10:20:26.678Z,9.77
2023-01-17T10:24:16.495Z,9.81
2023-01-17T10:27:44.470Z,9.77
2023-01-17T10:30:32.481Z,9.85
2023-01-17T10:33:10.798Z,9.79
2023-01-17T10:36:18.173Z,9.95
2023-01-17T10:39:55.712Z,9.88
2023-01-17T10:42:35.825Z,10.03
2023-01-17T10:45:21.049Z,10.15
2023-01-17T10:48:01.794Z,10.37
2023-01-17T10:50:59.743Z,10.29
2023-01-17T10:54:07.508Z,10.28
2023-01-17T10:57:07.248Z,10.35
2023-01-17T10:59:47.914Z,10.25
2023-01-17T11:02:45.917Z,10.41
2023-01-17T11:06:29.834Z,10.64
2023-01-17T11:09:11.934Z,10.74
2023-01-17T11:12:34.172Z,10.88
2023-01-17T11:15:33.444Z,10.94
2023-01-17T11:18:13.773Z,11.08
2023-01-17T11:20:44.874Z,11.11
2023-01-17T11:23:46.332Z,10.90
2023-01-17T11:26:47.637Z,10.97
2023-01-17T11:29:47.733Z,11.01
2023-01-17T11:33:20.687Z,10.96
2023-01-17T11:36:41.493Z,11.12
2023-01-17T11:39:52.433Z,11.28
2023-01-17T11:43:55.064Z,11.34
2023-01-17T11:47:14.839Z,11.21
2023-01-17T11:50:04.555Z,11.13
2023-01-17T11:53:06.518Z,11.20
2023-01-17T11:57:18.610Z,11.17
2023-01-17T12:00:21.307Z,11.25
2023-01-17T12:03:55.853Z,11.26
2023-01-17T12:07:24.692Z,11.39
2023-01-17T12:10:20.929Z,11.49
2023-01-17T12:14:21.621Z,11.44
2023-01-17T12:18:14.322Z,11.34
2023-01-17T12:22:10.457Z,11.39
2023-01-17T12:25:26.682Z,11.48
2023-01-17T12:29:05.731Z,11.43
2023-01-17T12:32:21.576Z,11.50
2023-01-17T12:35:36.305Z,11.39
2023-01-17T12:38:32.808Z,11.37
2023-01-17T12:42:31.035Z,11.32
2023-01-17T12:45:57.621Z,11.28
2023-01-17T12:49:55.069Z,11.42
2023-01-17T12:53:16.315Z,11.48
2023-01-17T12:56:50.552Z,11.31
2023-01-17T13:00:42.599Z,11.40
2023-01-17T13:04:03.350Z,11.38
2023-01-17T13:07:44.030Z,11.37
2023-01-17T13:11:27.801Z,11.35
2023-01-17T13:14:46.780Z,11.42
2023-01-17T13:18:44.424Z,11.51
2023-01-17T13:21:49.034Z,11.46
2023-01-17T13:25:05.432Z,11.34
2023-01-17T13:28:07.291Z,11.42
2023-01-17T13:31:48.400Z,11.49
2023-01-17T13:34:27.326Z,11.35
2023-01-17T13:38:00.499Z,11.20
2023-01-17T13:42:19.424Z,10.82
2023-01-17T13:45:29.637Z,10.64
2023-01-17T13:49:23.006Z,10.67
2023-01-17T13:52:33.165Z,10.70
2023-01-17T13:55:53.958Z,10.86
2023-01-17T13:59:03.786Z,10.75
2023-01-17T14:01:32.554Z,10.80
2023-01-17T14:05:08.802Z,10.87
2023-01-17T14:08:03.659Z,10.92
2023-01-17T14:10:45.238Z,10.98
2023-01-17T14:13:55.713Z,11.01
2023-01-17T14:16:57.063Z,11.03
2023-01-17T14:19:29.325Z,11.10
2023-01-17T14:23:08.690Z,11.14
2023-01-17T14:26:02.212Z,11.09
2023-01-17T14:28:46.859Z,11.15
2023-01-17T14:31:20.811Z,11.10
2023-01-17T14:34:24.331Z,11.06
2023-01-17T14:37:05.108Z,10.97
2023-01-17T14:39:50.007Z,10.97
2023-01-17T14:42:25.738Z,10.98
2023-01-17T14:45:12.540Z,10.99
2023-01-17T14:47:46.203Z,10.98
2023-01-17T14:51:10.796Z,10.94
2023-01-17T14:54:02.258Z,10.95
2023-01-17T14:56:36.531Z,10.98
2023-01-17T14:59:22.420Z,11.02
2023-01-17T15:02:07.672Z,10.98
2023-01-17T15:04:40.989Z,11.01
2023-01-17T15:07:20.620Z,10.97
2023-01-17T15:09:56.373Z,10.94
2023-01-17T15:12:46.690Z,10.98
2023-01-17T15:15:46.377Z,10.88
2023-01-17T15:18:14.992Z,10.77
2023-01-17T15:21:02.308Z,10.76
2023-01-17T15:23:41.205Z,10.68
2023-01-17T15:26:24.547Z,10.71
2023-01-17T15:29:21.490Z,10.64
2023-01-17T15:32:03.220Z,10.64
2023-01-17T15:34:59.708Z,10.62
2023-01-17T15:38:07.611Z,10.59
2023-01-17T15:40:46.739Z,10.46
2023-01-17T15:43:40.312Z,10.41
2023-01-17T15:46:29.060Z,10.32
2023-01-17T15:49:29.901Z,10.27
2023-01-17T15:52:18.557Z,10.31
2023-01-17T15:54:53.485Z,10.33
2023-01-17T15:57:45.312Z,10.32
2023-01-17T16:00:42.191Z,10.31
2023-01-17T16:03:30.304Z,10.30
2023-01-17T16:06:00.766Z,10.25
2023-01-17T16:09:16.635Z,10.27
2023-01-17T16:11:47.756Z,10.30
2023-01-17T16:14:40.535Z,10.38
2023-01-17T16:17:30.493Z,10.42
2023-01-17T16:20:17.098Z,10.43
2023-01-17T16:22:56.641Z,10.32
2023-01-17T16:25:33.102Z,10.35
2023-01-17T16:28:25.032Z,10.30
2023-01-17T16:31:38.234Z,10.17
2023-01-17T16:34:24.638Z,10.17
2023-01-17T16:37:16.720Z,10.26
2023-01-17T16:40:11.823Z,10.29
2023-01-17T16:42:54.027Z,10.22
2023-01-17T16:45:30.464Z,10.26
2023-01-17T16:48:17.666Z,10.31
2023-01-17T16:51:10.670Z,10.37
2023-01-17T16:53:49.972Z,10.40
2023-01-17T16:56:31.252Z,10.43
2023-01-17T16:59:24.117Z,10.41
2023-01-17T17:02:06.120Z,10.40
2023-01-17T17:04:46.955Z,10.42
2023-01-17T17:07:52.166Z,10.31
2023-01-17T17:10:35.955Z,10.27
2023-01-17T17:13:53.363Z,10.26
2023-01-17T17:16:30.883Z,10.33
2023-01-17T17:19:06.721Z,10.43
2023-01-17T17:21:58.448Z,10.35
2023-01-17T17:24:51.193Z,10.32
2023-01-17T17:27:27.910Z,10.22
2023-01-17T17:30:03.126Z,10.20
2023-01-17T17:32:49.887Z,10.17
2023-01-17T17:35:36.362Z,10.19
2023-01-17T17:38:12.076Z,10.20
2023-01-17T17:40:50.685Z,10.25
2023-01-17T17:43:26.548Z,10.32
2023-01-17T17:45:58.323Z,10.33
2023-01-17T17:48:31.995Z,10.34
2023-01-17T17:51:05.950Z,10.33
2023-01-17T17:53:37.132Z,10.31
2023-01-17T17:56:11.563Z,10.33
2023-01-17T17:58:46.379Z,10.25
2023-01-17T18:01:15.191Z,9.38
2023-01-17T18:03:46.530Z,8.41
2023-01-17T18:06:22.687Z,7.57
2023-01-17T18:08:58.106Z,6.91
2023-01-17T18:11:29.790Z,6.78
2023-01-17T18:14:00.931Z,7.71
2023-01-17T18:16:53.481Z,8.26
2023-01-17T18:19:27.344Z,8.51
2023-01-17T18:22:03.513Z,8.68
2023-01-17T18:24:36.425Z,8.84
2023-01-17T18:27:10.535Z,8.98
2023-01-17T18:29:56.628Z,9.10
2023-01-17T18:32:28.484Z,9.19
2023-01-17T18:34:59.306Z,9.26
2023-01-17T18:37:33.746Z,9.33
2023-01-17T18:40:26.974Z,9.38
2023-01-17T18:43:00.648Z,9.38
2023-01-17T18:45:28.905Z,8.74
2023-01-17T18:48:12.103Z,7.70
2023-01-17T18:51:15.835Z,6.70
2023-01-17T18:53:53.017Z,6.82
2023-01-17T18:56:30.891Z,7.26
2023-01-17T18:59:18.499Z,7.51
2023-01-17T19:01:53.568Z,7.58
2023-01-17T19:04:36.268Z,7.72
2023-01-17T19:07:08.427Z,7.83
2023-01-17T19:09:39.270Z,7.95
2023-01-17T19:12:29.867Z,8.12
2023-01-17T19:15:01.214Z,8.31
2023-01-17T19:17:32.838Z,8.48
2023-01-17T19:20:19.137Z,8.60
2023-01-17T19:22:48.065Z,8.69
2023-01-17T19:25:19.007Z,8.76
2023-01-17T19:27:53.451Z,8.85
2023-01-17T19:30:22.411Z,8.89
2023-01-17T19:33:04.199Z,8.94
2023-01-17T19:35:44.358Z,8.99
2023-01-17T19:38:25.944Z,8.62
2023-01-17T19:41:23.635Z,7.44
2023-01-17T19:44:02.263Z,6.50
2023-01-17T19:46:45.657Z,5.77
2023-01-17T19:49:32.141Z,5.85
2023-01-17T19:52:06.288Z,6.84
2023-01-17T19:54:52.978Z,7.39
2023-01-17T19:57:24.933Z,7.55
2023-01-17T19:59:54.436Z,7.69
2023-01-17T20:02:26.731Z,7.79
2023-01-17T20:05:16.036Z,7.87
2023-01-17T20:07:57.254Z,7.95
2023-01-17T20:10:32.096Z,8.04
2023-01-17T20:13:14.283Z,8.12
2023-01-17T20:15:42.866Z,8.18
2023-01-17T20:18:14.727Z,8.31
2023-01-17T20:20:57.395Z,8.43
2023-01-17T20:23:48.062Z,8.51
2023-01-17T20:26:44.095Z,8.58
2023-01-17T20:29:27.597Z,8.64
2023-01-17T20:32:44.820Z,8.71
2023-01-17T20:35:41.259Z,8.76
2023-01-17T20:38:27.755Z,8.77
2023-01-17T20:41:12.080Z,7.92
2023-01-17T20:44:34.551Z,6.83
2023-01-17T20:48:03.842Z,5.71
2023-01-17T20:50:49.356Z,5.04
2023-01-17T20:53:44.138Z,4.81
2023-01-17T20:57:04.916Z,5.80
2023-01-17T20:59:48.791Z,6.63
2023-01-17T21:02:28.217Z,7.04
2023-01-17T21:05:04.075Z,7.30
2023-01-17T21:07:43.203Z,7.45
2023-01-17T21:10:22.694Z,7.58
2023-01-17T21:13:08.113Z,7.73
2023-01-17T21:16:05.517Z,7.89
2023-01-17T21:19:32.933Z,7.95
2023-01-17T21:22:06.872Z,7.93
2023-01-17T21:25:23.038Z,7.85
2023-01-17T21:28:03.202Z,7.83
2023-01-17T21:30:33.230Z,7.90
2023-01-17T21:33:08.861Z,7.98
2023-01-17T21:35:53.415Z,8.06
2023-01-17T21:38:24.972Z,8.14
2023-01-17T21:40:59.831Z,8.16
2023-01-17T21:43:36.328Z,8.21
2023-01-17T21:46:07.536Z,8.37
2023-01-17T21:48:37.767Z,8.37
2023-01-17T21:51:14.824Z,8.33
2023-01-17T21:54:00.285Z,8.29
2023-01-17T21:56:47.503Z,8.24
2023-01-17T21:59:20.797Z,8.29
2023-01-17T22:02:10.712Z,8.29
2023-01-17T22:04:44.190Z,8.26
2023-01-17T22:07:18.820Z,8.36
2023-01-17T22:10:05.143Z,8.28
2023-01-17T22:12:36.347Z,8.27
2023-01-17T22:15:08.944Z,8.37
2023-01-17T22:17:47.534Z,8.37
2023-01-17T22:20:20.974Z,8.35
2023-01-17T22:22:55.678Z,8.40
2023-01-17T22:25:35.768Z,8.46
2023-01-17T22:28:14.349Z,8.45
2023-01-17T22:30:46.065Z,8.48
2023-01-17T22:33:22.903Z,8.54
2023-01-17T22:36:05.893Z,8.53
2023-01-17T22:38:40.421Z,8.56
2023-01-17T22:41:20.151Z,8.66
2023-01-17T22:43:58.834Z,8.76
2023-01-17T22:46:32.841Z,8.80
2023-01-17T22:49:08.597Z,8.74
2023-01-17T22:51:42.631Z,8.79
2023-01-17T22:54:15.010Z,8.81
2023-01-17T22:56:50.963Z,8.80
2023-01-17T22:59:25.172Z,8.81
2023-01-17T23:01:56.760Z,8.87
2023-01-17T23:04:28.399Z,8.90
2023-01-17T23:06:56.875Z,8.82
2023-01-17T23:09:33.200Z,8.83
2023-01-17T23:12:13.178Z,8.84
2023-01-17T23:15:00.382Z,8.84
2023-01-17T23:17:55.395Z,8.84
2023-01-17T23:20:57.770Z,8.86
2023-01-17T23:23:34.754Z,8.92
2023-01-17T23:26:17.463Z,9.01
2023-01-17T23:28:49.328Z,9.08
2023-01-17T23:31:35.913Z,9.05
2023-01-17T23:34:21.508Z,8.23
2023-01-17T23:36:52.855Z,7.09
2023-01-17T23:39:24.201Z,6.34
2023-01-17T23:42:11.576Z,6.84
2023-01-17T23:44:48.505Z,8.25
2023-01-17T23:47:55.280Z,8.91
2023-01-17T23:50:53.353Z,9.46
2023-01-17T23:53:27.468Z,9.09
2023-01-17T23:56:45.412Z,8.85
2023-01-17T23:59:28.370Z,9.20
